Time;durP1;ratioP1;P1;durP2;ratioP2;P2;SDS_P1;SDS_P2;PMS_P1;PMS_P2;Temp;Humidity;BMP_temperature;BMP_pressure;BME280_temperature;BME280_humidity;BME280_pressure;Samples;Min_cycle;Max_cycle;Signal;HPM_P1;HPM_P2
2022/05/25 00:13:18;;;;;;;7.78;3.40;;;;;;;16.13;75.73;99728.47;30979877;28;96743;-75
2022/05/25 00:28:19;;;;;;;5.68;3.97;;;;;;;16.16;75.15;99744.16;30979244;28;97242;-72
2022/05/25 00:43:20;;;;;;;7.13;4.53;;;;;;;16.27;74.42;99761.44;30977914;28;97439;-77
2022/05/25 00:58:20;;;;;;;9.93;5.05;;;;;;;16.31;74.56;99772.59;30976322;28;107842;-78
2022/05/25 01:13:29;;;;;;;7.78;5.05;;;;;;;16.38;74.89;99781.44;30994997;28;97021;-72
2022/05/25 01:28:42;;;;;;;10.07;6.40;;;;;;;16.40;74.75;99808.91;30996834;28;97506;-72
2022/05/25 01:43:48;;;;;;;8.67;6.63;;;;;;;16.12;76.22;99801.25;30995897;28;96653;-72
2022/05/25 01:58:56;;;;;;;9.20;6.00;;;;;;;15.97;77.62;99813.09;30994691;28;96738;-71
2022/05/25 02:14:14;;;;;;;7.93;5.53;;;;;;;15.91;77.33;99805.91;30992371;28;96775;-76
2022/05/25 02:29:18;;;;;;;8.60;7.17;;;;;;;15.93;77.67;99816.44;30991030;28;96922;-72
2022/05/25 02:44:19;;;;;;;10.40;6.97;;;;;;;15.82;79.16;99817.94;30989331;28;96639;-74
2022/05/25 02:59:20;;;;;;;9.63;7.50;;;;;;;15.68;80.07;99822.53;30987714;28;97262;-72
2022/05/25 03:14:20;;;;;;;9.63;8.63;;;;;;;15.57;79.99;99838.25;30985246;28;104532;-71
2022/05/25 03:29:20;;;;;;;13.93;8.70;;;;;;;15.73;79.72;99853.06;30983643;28;97588;-72
2022/05/25 03:44:22;;;;;;;10.30;8.25;;;;;;;15.65;79.91;99871.25;30983937;28;97820;-70
2022/05/25 03:59:22;;;;;;;16.03;8.80;;;;;;;15.34;81.51;99875.47;30997720;28;97179;-71
2022/05/25 04:14:23;;;;;;;11.70;8.23;;;;;;;15.17;81.48;99894.69;30976736;28;97515;-72
2022/05/25 04:29:23;;;;;;;8.03;5.63;;;;;;;15.01;79.32;99897.81;30974123;28;96660;-72
2022/05/25 04:44:24;;;;;;;9.88;7.32;;;;;;;14.81;81.05;99930.78;30974347;28;96809;-73
2022/05/25 04:59:25;;;;;;;7.87;5.93;;;;;;;14.98;78.25;99927.69;30973192;28;99036;-70
2022/05/25 05:14:26;;;;;;;6.10;4.95;;;;;;;14.97;78.47;99934.13;30965076;28;111670;-73
2022/05/25 05:29:30;;;;;;;5.85;4.70;;;;;;;14.99;76.76;99948.13;30970097;28;97291;-73
2022/05/25 05:44:38;;;;;;;7.90;4.53;;;;;;;15.05;75.72;99974.16;30967379;28;96834;-72
2022/05/25 05:59:38;;;;;;;4.50;3.30;;;;;;;15.62;71.32;99969.16;30986322;28;97510;-74
2022/05/25 06:14:39;;;;;;;4.97;3.05;;;;;;;15.69;70.69;99985.25;30989331;28;96791;-73
2022/05/25 06:29:43;;;;;;;6.60;3.80;;;;;;;15.35;73.93;100012.13;30989733;28;97046;-70
2022/05/25 06:44:44;;;;;;;8.93;4.43;;;;;;;15.20;74.39;100025.75;30987954;28;97560;-72
2022/05/25 06:59:45;;;;;;;5.47;3.40;;;;;;;15.19;74.18;100034.81;30984989;28;96941;-71
2022/05/25 07:14:46;;;;;;;8.13;4.07;;;;;;;15.05;74.23;100057.31;30984174;28;96683;-71
2022/05/25 07:29:46;;;;;;;6.90;3.90;;;;;;;15.30;72.66;100067.47;30981951;28;97305;-72
2022/05/25 07:44:53;;;;;;;7.10;3.33;;;;;;;15.54;70.49;100085.66;30977756;28;97339;-75
2022/05/25 07:59:54;;;;;;;4.97;3.23;;;;;;;15.45;71.51;100084.19;30975878;28;96706;-78
2022/05/25 08:14:54;;;;;;;3.53;2.80;;;;;;;15.76;70.04;100098.03;30978100;28;99589;-72
2022/05/25 08:29:55;;;;;;;3.55;2.63;;;;;;;16.04;67.94;100111.28;30978393;28;96680;-77
2022/05/25 08:44:57;;;;;;;3.83;2.85;;;;;;;16.06;67.82;100082.34;30975106;28;96625;-78
2022/05/25 09:00:06;;;;;;;3.77;2.77;;;;;;;15.79;69.33;100060.03;30973984;28;96734;-72
2022/05/25 09:15:13;;;;;;;4.50;3.00;;;;;;;16.39;67.51;100092.22;30972299;28;97275;-71
2022/05/25 09:30:15;;;;;;;3.20;2.37;;;;;;;16.73;65.85;100125.19;30979536;28;96887;-70
2022/05/25 09:45:15;;;;;;;1.63;1.33;;;;;;;17.03;62.92;100130.91;30988976;28;96887;-72
2022/05/25 10:00:22;;;;;;;3.00;1.38;;;;;;;18.21;59.62;100134.03;30988856;28;97412;-72
2022/05/25 10:15:33;;;;;;;5.37;2.10;;;;;;;18.23;59.10;100156.22;30988094;28;97052;-75
2022/05/25 10:46:00;;;;;;;5.10;2.60;;;;;;;18.82;58.17;100126.16;30986356;28;97048;-72
2022/05/25 11:01:34;;;;;;;2.23;1.67;;;;;;;19.56;53.31;100120.59;30985029;28;97913;-67
2022/05/25 11:16:58;;;;;;;3.40;2.10;;;;;;;20.82;50.81;100125.91;30983749;28;97469;-71
2022/05/25 11:32:16;;;;;;;3.50;2.10;;;;;;;19.43;54.12;100134.28;30983353;28;96757;-71
2022/05/25 11:47:35;;;;;;;2.90;1.70;;;;;;;19.87;54.62;100148.38;30978957;28;96882;-77
2022/05/25 12:02:39;;;;;;;6.43;2.53;;;;;;;19.16;57.13;100150.03;30978806;28;96675;-66
2022/05/25 12:18:30;;;;;;;3.73;3.10;;;;;;;18.83;58.43;100149.34;30977435;28;96696;-71
2022/05/25 12:33:31;;;;;;;7.93;4.37;;;;;;;18.02;61.60;100153.94;30963450;28;96727;-71
2022/05/25 12:48:46;;;;;;;3.80;3.37;;;;;;;18.10;62.82;100165.25;31020579;28;97298;-78
2022/05/25 13:03:46;;;;;;;6.33;2.97;;;;;;;18.51;62.07;100168.41;31099378;28;96752;-72
2022/05/25 13:18:50;;;;;;;3.03;2.33;;;;;;;18.36;60.77;100178.72;31006336;28;97741;-74
2022/05/25 13:33:50;;;;;;;3.67;2.80;;;;;;;17.39;64.30;100177.13;30971215;28;96846;-75
2022/05/25 13:48:52;;;;;;;4.63;3.35;;;;;;;17.61;65.84;100172.22;30906330;28;96822;-75
2022/05/25 14:04:05;;;;;;;6.00;3.80;;;;;;;18.09;63.21;100173.56;30846121;28;96937;-74
2022/05/25 14:19:06;;;;;;;5.07;3.23;;;;;;;17.42;65.46;100165.91;30863391;28;97518;-73
2022/05/25 14:34:09;;;;;;;3.97;3.22;;;;;;;17.13;65.03;100168.13;30864985;28;97333;-76
2022/05/25 14:49:16;;;;;;;4.60;3.70;;;;;;;16.97;67.93;100165.94;31030483;28;97688;-77
2022/05/25 15:04:29;;;;;;;4.77;4.27;;;;;;;16.60;70.68;100163.72;31046285;28;97889;-76
2022/05/25 15:19:30;;;;;;;5.07;4.13;;;;;;;17.11;70.44;100167.50;31043733;28;97296;-76
2022/05/25 15:34:30;;;;;;;5.70;3.80;;;;;;;17.90;66.72;100168.06;31040459;28;97042;-83
2022/05/25 15:49:31;;;;;;;3.67;2.30;;;;;;;17.66;63.62;100167.00;31047365;28;96851;-76
2022/05/25 16:04:35;;;;;;;2.55;2.25;;;;;;;17.02;64.61;100156.16;30971675;28;97080;-77
2022/05/25 16:19:39;;;;;;;3.70;2.47;;;;;;;16.69;65.70;100157.09;30968502;28;97396;-74
2022/05/25 16:34:43;;;;;;;3.20;2.60;;;;;;;16.39;64.73;100151.38;30958006;28;97358;-78
2022/05/25 16:49:43;;;;;;;4.57;3.10;;;;;;;16.30;64.75;100144.56;30954427;28;98053;-74
2022/05/25 17:04:44;;;;;;;3.70;2.47;;;;;;;16.05;66.94;100155.94;30967072;28;103477;-71
2022/05/25 17:35:04;;;;;;;3.20;1.83;;;;;;;15.63;64.38;100163.31;30940271;28;96855;-71
2022/05/25 17:50:05;;;;;;;4.83;2.30;;;;;;;15.36;66.22;100169.47;30982215;28;97619;-72
2022/05/25 18:05:05;;;;;;;8.13;3.23;;;;;;;15.01;68.45;100169.53;30992743;28;96906;-74
2022/05/25 18:20:08;;;;;;;5.50;3.83;;;;;;;14.65;70.65;100167.94;30990832;28;96830;-66
2022/05/25 18:35:09;;;;;;;;;;;;;;;14.31;71.44;100168.69;30990093;28;96828;-66
2022/05/25 18:50:12;;;;;;;5.43;3.23;;;;;;;13.91;72.31;100184.44;30989847;28;97086;-71
2022/05/25 19:05:14;;;;;;;6.27;3.33;;;;;;;13.68;73.34;100198.84;30988645;28;97069;-72
2022/05/25 19:20:15;;;;;;;7.43;3.60;;;;;;;13.46;74.02;100216.72;30985891;28;96770;-67
2022/05/25 19:35:18;;;;;;;5.85;3.67;;;;;;;13.22;74.94;100226.72;30985322;28;96816;-68
2022/05/25 20:05:37;;;;;;;7.50;3.70;;;;;;;12.76;76.74;100237.63;30983181;28;97098;-67
2022/05/25 20:20:39;;;;;;;7.27;3.93;;;;;;;12.45;77.73;100247.44;30979694;28;96740;-67
2022/05/25 20:35:43;;;;;;;10.37;4.37;;;;;;;12.19;78.13;100247.81;30979331;28;96756;-70
2022/05/25 20:50:44;;;;;;;9.13;5.63;;;;;;;12.00;78.79;100249.97;30979392;28;96725;-71
2022/05/25 21:05:44;;;;;;;10.65;8.50;;;;;;;11.72;79.57;100249.63;30977511;28;97068;-69
2022/05/25 21:20:44;;;;;;;25.40;18.52;;;;;;;11.56;80.06;100252.38;30981941;28;108505;-72
2022/05/25 21:35:45;;;;;;;16.17;11.65;;;;;;;11.68;80.45;100256.31;30997001;28;96717;-71
2022/05/25 21:50:45;;;;;;;18.13;14.10;;;;;;;11.61;80.37;100244.69;30997143;28;96757;-75
2022/05/25 22:05:46;;;;;;;8.80;7.85;;;;;;;11.45;80.33;100227.75;30995213;28;96723;-71
2022/05/25 22:20:47;;;;;;;10.73;8.35;;;;;;;11.12;81.00;100241.25;30993120;28;96684;-73
2022/05/25 22:35:48;;;;;;;8.63;7.50;;;;;;;10.94;81.36;100248.66;30992101;28;96616;-72
2022/05/25 22:50:48;;;;;;;10.35;8.30;;;;;;;10.84;81.31;100255.00;30990046;28;107232;-73
2022/05/25 23:05:49;;;;;;;10.73;7.80;;;;;;;10.72;81.67;100245.69;30989355;28;96909;-73
2022/05/25 23:20:49;;;;;;;11.80;8.27;;;;;;;10.70;81.78;100245.03;30988560;28;96625;-74
2022/05/25 23:35:49;;;;;;;10.90;8.48;;;;;;;10.69;82.54;100240.72;30987232;28;96666;-72
2022/05/25 23:50:50;;;;;;;11.10;8.57;;;;;;;10.70;82.60;100247.69;30984461;28;97023;-73
